createdAt,value
2022-10-07T00:01:17.999Z,9.10
2022-10-07T00:03:46.095Z,9.40
2022-10-07T00:06:16.981Z,7.25
2022-10-07T00:08:48.744Z,9.90
2022-10-07T00:11:22.810Z,8.73
2022-10-07T00:14:02.422Z,10.43
2022-10-07T00:16:33.759Z,12.77
2022-10-07T00:19:05.347Z,8.98
2022-10-07T00:21:35.427Z,13.77
2022-10-07T00:24:03.999Z,10.90
2022-10-07T00:26:33.940Z,14.25
2022-10-07T00:29:02.310Z,11.18
2022-10-07T00:31:36.038Z,12.65
2022-10-07T00:34:04.974Z,10.82
2022-10-07T00:36:34.979Z,13.40
2022-10-07T00:39:12.698Z,10.65
2022-10-07T00:41:51.188Z,9.32
2022-10-07T00:44:38.558Z,11.43
2022-10-07T00:47:32.682Z,9.98
2022-10-07T00:50:09.114Z,14.63
2022-10-07T00:52:41.854Z,12.57
2022-10-07T00:55:15.598Z,10.20
2022-10-07T00:57:45.258Z,10.75
2022-10-07T01:00:13.697Z,14.80
2022-10-07T01:02:41.854Z,8.90
2022-10-07T01:05:11.438Z,10.98
2022-10-07T01:07:39.499Z,13.07
2022-10-07T01:10:09.647Z,10.60
2022-10-07T01:12:49.789Z,13.52
2022-10-07T01:15:36.870Z,10.63
2022-10-07T01:18:26.926Z,9.98
2022-10-07T01:21:22.522Z,14.38
2022-10-07T01:24:33.626Z,12.70
2022-10-07T01:27:15.955Z,16.10
2022-10-07T01:29:56.269Z,13.13
2022-10-07T01:32:35.461Z,14.15
2022-10-07T01:35:08.448Z,15.00
2022-10-07T01:37:42.455Z,16.30
2022-10-07T01:40:40.295Z,17.75
2022-10-07T01:43:08.524Z,16.70
2022-10-07T01:45:40.992Z,16.65
2022-10-07T01:48:09.330Z,14.10
2022-10-07T01:50:38.336Z,12.80
2022-10-07T01:53:24.861Z,15.05
2022-10-07T01:56:01.523Z,13.37
2022-10-07T01:58:53.865Z,9.48
2022-10-07T02:01:59.471Z,8.98
2022-10-07T02:05:16.067Z,12.38
2022-10-07T02:08:01.188Z,9.48
2022-10-07T02:10:35.178Z,10.07
2022-10-07T02:13:24.395Z,10.63
2022-10-07T02:16:03.112Z,7.47
2022-10-07T02:18:34.767Z,9.48
2022-10-07T02:21:07.490Z,11.07
2022-10-07T02:23:40.474Z,9.03
2022-10-07T02:26:13.905Z,10.35
2022-10-07T02:28:44.654Z,8.80
2022-10-07T02:31:18.573Z,9.55
2022-10-07T02:33:47.679Z,7.85
2022-10-07T02:36:39.258Z,11.53
2022-10-07T02:39:08.767Z,11.32
2022-10-07T02:41:51.180Z,10.35
2022-10-07T02:44:35.803Z,9.40
2022-10-07T02:47:29.421Z,10.27
2022-10-07T02:50:01.696Z,13.47
2022-10-07T02:52:33.177Z,9.35
2022-10-07T02:55:18.121Z,10.88
2022-10-07T02:57:52.426Z,10.30
2022-10-07T03:00:21.365Z,11.05
2022-10-07T03:02:51.615Z,8.83
2022-10-07T03:05:22.167Z,12.10
2022-10-07T03:08:00.670Z,10.75
2022-10-07T03:10:32.774Z,14.63
2022-10-07T03:13:05.353Z,10.23
2022-10-07T03:15:42.031Z,8.53
2022-10-07T03:18:27.013Z,9.02
2022-10-07T03:21:09.095Z,8.80
2022-10-07T03:23:37.437Z,9.82
2022-10-07T03:26:09.394Z,10.95
2022-10-07T03:28:37.891Z,11.33
2022-10-07T03:31:08.576Z,10.98
2022-10-07T03:33:39.369Z,9.27
2022-10-07T03:36:10.424Z,9.10
2022-10-07T03:38:41.029Z,10.52
2022-10-07T03:41:11.026Z,9.07
2022-10-07T03:43:39.906Z,8.88
2022-10-07T03:46:09.053Z,9.10
2022-10-07T03:48:38.636Z,10.10
2022-10-07T03:51:07.848Z,7.85
2022-10-07T03:53:39.547Z,7.20
2022-10-07T03:56:08.532Z,6.95
2022-10-07T03:58:38.655Z,8.10
2022-10-07T04:01:16.438Z,9.32
2022-10-07T04:03:56.269Z,9.38
2022-10-07T04:06:25.761Z,9.73
2022-10-07T04:08:55.725Z,7.43
2022-10-07T04:11:24.665Z,7.75
2022-10-07T04:13:56.299Z,7.50
2022-10-07T04:16:27.556Z,8.30
2022-10-07T04:19:01.397Z,6.93
2022-10-07T04:21:30.514Z,8.02
2022-10-07T04:23:59.328Z,6.78
2022-10-07T04:26:28.108Z,6.57
2022-10-07T04:28:55.936Z,12.23
2022-10-07T04:31:24.702Z,10.47
2022-10-07T04:33:59.297Z,8.27
2022-10-07T04:36:33.330Z,6.20
2022-10-07T04:39:07.861Z,7.68
2022-10-07T04:41:39.319Z,8.63
2022-10-07T04:44:12.643Z,6.67
2022-10-07T04:46:49.872Z,8.18
2022-10-07T04:49:19.342Z,7.10
2022-10-07T04:51:48.326Z,9.40
2022-10-07T04:54:17.284Z,7.63
2022-10-07T04:56:52.911Z,10.67
2022-10-07T04:59:26.171Z,9.57
2022-10-07T05:01:57.492Z,7.25
2022-10-07T05:04:28.220Z,7.60
2022-10-07T05:06:57.693Z,7.82
2022-10-07T05:09:26.980Z,7.70
2022-10-07T05:11:58.125Z,6.35
2022-10-07T05:14:26.166Z,5.28
2022-10-07T05:16:57.961Z,7.38
2022-10-07T05:19:30.388Z,9.63
2022-10-07T05:21:59.386Z,9.77
2022-10-07T05:24:28.041Z,6.28
2022-10-07T05:26:56.563Z,7.65
2022-10-07T05:29:25.253Z,9.52
2022-10-07T05:31:54.832Z,13.32
2022-10-07T05:34:25.999Z,17.70
2022-10-07T05:36:55.886Z,14.80
2022-10-07T05:39:24.217Z,11.07
2022-10-07T05:41:56.394Z,9.98
2022-10-07T05:44:32.747Z,9.25
2022-10-07T05:47:02.757Z,7.57
2022-10-07T05:49:31.161Z,8.77
2022-10-07T05:51:59.618Z,8.10
2022-10-07T05:54:27.618Z,7.20
2022-10-07T05:56:57.349Z,7.00
2022-10-07T05:59:25.445Z,7.80
2022-10-07T06:01:58.038Z,7.88
2022-10-07T06:04:27.262Z,8.32
2022-10-07T06:06:55.204Z,6.72
2022-10-07T06:09:41.360Z,6.05
2022-10-07T06:12:33.015Z,8.03
2022-10-07T06:15:05.461Z,9.13
2022-10-07T06:17:34.608Z,11.07
2022-10-07T06:20:06.341Z,6.90
2022-10-07T06:22:34.379Z,7.72
2022-10-07T06:25:03.084Z,6.00
2022-10-07T06:27:33.916Z,7.72
2022-10-07T06:30:02.067Z,9.18
2022-10-07T06:32:32.975Z,6.68
2022-10-07T06:35:02.318Z,6.35
2022-10-07T06:37:33.265Z,9.07
2022-10-07T06:40:02.562Z,8.45
2022-10-07T06:42:32.985Z,6.20
2022-10-07T06:45:19.122Z,9.43
2022-10-07T06:47:50.171Z,9.82
2022-10-07T06:50:18.048Z,10.07
2022-10-07T06:52:45.951Z,8.60
2022-10-07T06:55:14.025Z,10.65
2022-10-07T06:57:46.204Z,8.60
2022-10-07T07:00:17.511Z,9.48
2022-10-07T07:02:46.811Z,10.00
2022-10-07T07:05:16.073Z,8.60
2022-10-07T07:07:46.183Z,13.13
2022-10-07T07:10:15.144Z,11.38
2022-10-07T07:12:46.888Z,12.15
2022-10-07T07:15:15.077Z,9.70
2022-10-07T07:17:43.282Z,11.65
2022-10-07T07:20:15.512Z,11.50
2022-10-07T07:22:44.460Z,10.25
2022-10-07T07:25:12.733Z,12.15
2022-10-07T07:27:41.600Z,11.23
2022-10-07T07:30:12.077Z,8.88
2022-10-07T07:32:41.047Z,12.00
2022-10-07T07:35:09.509Z,7.63
2022-10-07T07:37:37.469Z,7.57
2022-10-07T07:40:05.812Z,8.60
2022-10-07T07:42:35.155Z,10.73
2022-10-07T07:45:03.383Z,11.52
2022-10-07T07:47:34.584Z,10.65
2022-10-07T07:50:04.407Z,10.27
2022-10-07T07:52:37.229Z,9.97
2022-10-07T07:55:07.620Z,10.80
2022-10-07T07:57:37.007Z,9.52
2022-10-07T08:00:09.067Z,10.45
2022-10-07T08:02:43.854Z,10.80
2022-10-07T08:05:22.869Z,15.43
2022-10-07T08:07:53.411Z,10.77
2022-10-07T08:10:23.181Z,8.80
2022-10-07T08:12:51.160Z,13.30
2022-10-07T08:15:19.013Z,10.52
2022-10-07T08:17:50.529Z,9.83
2022-10-07T08:20:19.645Z,7.72
2022-10-07T08:22:47.898Z,6.72
2022-10-07T08:25:17.138Z,8.02
2022-10-07T08:27:46.429Z,9.27
2022-10-07T08:30:15.211Z,7.70
2022-10-07T08:32:43.118Z,11.13
2022-10-07T08:35:11.172Z,8.88
2022-10-07T08:37:39.204Z,13.40
2022-10-07T08:40:08.524Z,10.25
2022-10-07T08:42:43.177Z,10.77
2022-10-07T08:45:26.023Z,10.30
2022-10-07T08:47:54.558Z,12.23
2022-10-07T08:50:30.124Z,8.85
2022-10-07T08:53:03.452Z,8.35
2022-10-07T08:55:42.385Z,9.10
2022-10-07T08:58:49.551Z,8.63
2022-10-07T09:01:39.488Z,12.18
2022-10-07T09:04:28.449Z,9.85
2022-10-07T09:07:17.293Z,9.45
2022-10-07T09:09:55.395Z,9.70
2022-10-07T09:12:37.561Z,10.00
2022-10-07T09:15:15.127Z,9.02
2022-10-07T09:17:52.827Z,11.52
2022-10-07T09:20:24.506Z,8.45
2022-10-07T09:22:57.648Z,9.43
2022-10-07T09:25:31.179Z,13.43
2022-10-07T09:27:59.407Z,7.95
2022-10-07T09:30:29.842Z,8.02
2022-10-07T09:32:58.715Z,9.05
2022-10-07T09:35:32.046Z,8.57
2022-10-07T09:38:08.605Z,9.25
2022-10-07T09:41:04.760Z,10.07
2022-10-07T09:43:34.301Z,7.28
2022-10-07T09:46:02.817Z,8.73
2022-10-07T09:48:34.772Z,9.43
2022-10-07T09:51:17.730Z,7.80
2022-10-07T09:54:19.554Z,10.25
2022-10-07T09:56:54.980Z,7.05
2022-10-07T09:59:32.248Z,10.57
2022-10-07T10:02:15.577Z,7.03
2022-10-07T10:04:57.853Z,8.20
2022-10-07T10:07:30.982Z,7.35
2022-10-07T10:10:15.263Z,9.48
2022-10-07T10:12:48.956Z,6.45
2022-10-07T10:15:27.618Z,8.20
2022-10-07T10:17:57.664Z,8.25
2022-10-07T10:20:30.571Z,7.22
2022-10-07T10:23:01.310Z,8.88
2022-10-07T10:26:11.387Z,6.68
2022-10-07T10:29:01.951Z,6.00
2022-10-07T10:31:51.022Z,6.85
2022-10-07T10:34:27.970Z,6.95
2022-10-07T10:37:15.671Z,12.77
2022-10-07T10:40:12.163Z,6.20
2022-10-07T10:43:06.745Z,6.83
2022-10-07T10:46:01.310Z,6.15
2022-10-07T10:49:07.362Z,6.68
2022-10-07T10:52:11.112Z,6.00
2022-10-07T10:55:01.716Z,7.47
2022-10-07T10:58:00.106Z,9.13
2022-10-07T11:00:38.974Z,7.03
2022-10-07T11:03:37.429Z,6.25
2022-10-07T11:06:11.145Z,7.20
2022-10-07T11:08:39.720Z,8.48
2022-10-07T11:11:15.904Z,7.63
2022-10-07T11:14:02.230Z,7.63
2022-10-07T11:16:38.987Z,8.20
2022-10-07T11:19:11.200Z,7.20
2022-10-07T11:21:56.811Z,10.88
2022-10-07T11:24:41.832Z,6.40
2022-10-07T11:27:21.297Z,6.35
2022-10-07T11:30:17.458Z,6.78
2022-10-07T11:32:57.240Z,7.57
2022-10-07T11:35:52.822Z,7.50
2022-10-07T11:38:35.051Z,5.50
2022-10-07T11:41:39.287Z,6.13
2022-10-07T11:44:19.437Z,6.82
2022-10-07T11:46:49.248Z,8.50
2022-10-07T11:49:39.220Z,6.40
2022-10-07T11:52:12.512Z,5.63
2022-10-07T11:54:50.236Z,5.53
2022-10-07T11:57:26.293Z,6.85
2022-10-07T12:00:06.784Z,7.55
2022-10-07T12:02:46.462Z,6.53
2022-10-07T12:05:36.998Z,4.80
2022-10-07T12:08:19.718Z,4.85
2022-10-07T12:10:47.835Z,4.82
2022-10-07T12:13:15.798Z,7.45
2022-10-07T12:15:44.930Z,5.93
2022-10-07T12:18:29.084Z,6.20
2022-10-07T12:21:04.643Z,7.45
2022-10-07T12:23:38.508Z,4.35
2022-10-07T12:26:33.366Z,4.78
2022-10-07T12:29:01.603Z,4.50
2022-10-07T12:31:32.280Z,5.60
2022-10-07T12:34:06.037Z,6.57
2022-10-07T12:36:34.301Z,5.55
2022-10-07T12:39:04.826Z,5.63
2022-10-07T12:41:44.499Z,3.67
2022-10-07T12:44:40.725Z,6.33
2022-10-07T12:47:18.393Z,7.63
2022-10-07T12:49:49.275Z,6.38
2022-10-07T12:52:24.907Z,5.18
2022-10-07T12:54:58.757Z,3.90
2022-10-07T12:57:34.613Z,7.73
2022-10-07T13:00:08.637Z,6.40
2022-10-07T13:03:14.162Z,5.00
2022-10-07T13:06:03.495Z,5.68
2022-10-07T13:08:49.880Z,5.55
2022-10-07T13:11:54.446Z,6.77
2022-10-07T13:14:35.924Z,5.70
2022-10-07T13:17:40.392Z,6.28
2022-10-07T13:20:28.914Z,6.10
2022-10-07T13:22:57.045Z,5.57
2022-10-07T13:25:25.036Z,5.40
2022-10-07T13:28:00.592Z,5.18
2022-10-07T13:30:45.935Z,4.78
2022-10-07T13:33:27.042Z,4.30
2022-10-07T13:36:12.064Z,6.78
2022-10-07T13:38:44.553Z,9.17
2022-10-07T13:41:32.918Z,7.05
2022-10-07T13:44:04.447Z,7.55
2022-10-07T13:46:36.267Z,9.18
2022-10-07T13:49:05.299Z,8.13
2022-10-07T13:51:35.254Z,7.63
2022-10-07T13:54:16.924Z,6.28
2022-10-07T13:56:45.562Z,9.25
2022-10-07T13:59:19.158Z,8.88
2022-10-07T14:01:53.706Z,10.25
2022-10-07T14:04:27.414Z,9.67
2022-10-07T14:07:11.687Z,8.18
2022-10-07T14:09:56.960Z,7.57
2022-10-07T14:12:48.018Z,9.85
2022-10-07T14:15:22.567Z,9.77
2022-10-07T14:17:55.021Z,8.50
2022-10-07T14:20:28.931Z,8.32
2022-10-07T14:22:59.747Z,8.80
2022-10-07T14:25:52.054Z,6.45
2022-10-07T14:28:25.974Z,9.82
2022-10-07T14:31:27.278Z,7.83
2022-10-07T14:34:16.512Z,7.95
2022-10-07T14:37:09.230Z,7.97
2022-10-07T14:39:48.157Z,6.30
2022-10-07T14:42:22.782Z,6.53
2022-10-07T14:44:52.139Z,5.27
2022-10-07T14:47:24.819Z,5.80
2022-10-07T14:49:54.737Z,6.90
2022-10-07T14:52:32.140Z,5.78
2022-10-07T14:55:04.136Z,8.27
2022-10-07T14:57:34.858Z,6.17
2022-10-07T15:00:03.541Z,8.63
2022-10-07T15:02:31.464Z,6.28
2022-10-07T15:04:59.687Z,6.85
2022-10-07T15:07:27.482Z,6.70
2022-10-07T15:09:55.477Z,8.03
2022-10-07T15:12:23.481Z,5.60
2022-10-07T15:14:51.501Z,6.47
2022-10-07T15:17:19.656Z,5.30
2022-10-07T15:19:48.104Z,6.15
2022-10-07T15:22:17.860Z,5.73
2022-10-07T15:24:45.956Z,4.68
2022-10-07T15:27:14.420Z,6.60
2022-10-07T15:29:42.355Z,7.25
2022-10-07T15:32:10.336Z,5.90
2022-10-07T15:34:41.286Z,4.90
2022-10-07T15:37:09.990Z,5.68
2022-10-07T15:39:39.859Z,7.63
2022-10-07T15:42:10.885Z,6.53
2022-10-07T15:44:42.166Z,6.75
2022-10-07T15:47:11.275Z,7.47
2022-10-07T15:49:41.152Z,6.90
2022-10-07T15:52:12.575Z,8.88
2022-10-07T15:54:40.747Z,7.78
2022-10-07T15:57:08.916Z,9.27
2022-10-07T15:59:37.025Z,6.63
2022-10-07T16:02:09.277Z,7.15
2022-10-07T16:04:43.814Z,25.52
2022-10-07T16:07:12.717Z,8.15
2022-10-07T16:09:41.022Z,9.25
2022-10-07T16:12:09.765Z,8.73
2022-10-07T16:14:37.625Z,7.45
2022-10-07T16:17:05.863Z,7.20
2022-10-07T16:19:33.786Z,8.50
2022-10-07T16:22:02.120Z,9.82
2022-10-07T16:24:34.153Z,10.30
2022-10-07T16:27:03.672Z,12.35
2022-10-07T16:29:49.951Z,8.82
2022-10-07T16:32:18.002Z,7.00
2022-10-07T16:34:47.394Z,7.35
2022-10-07T16:37:16.278Z,8.03
2022-10-07T16:39:44.107Z,8.27
2022-10-07T16:42:12.109Z,8.43
2022-10-07T16:44:40.049Z,9.27
2022-10-07T16:47:08.709Z,9.50
2022-10-07T16:49:37.276Z,12.30
2022-10-07T16:52:06.856Z,7.97
2022-10-07T16:54:36.034Z,9.68
2022-10-07T16:57:04.106Z,16.88
2022-10-07T16:59:32.106Z,6.70
2022-10-07T17:02:03.044Z,9.90
2022-10-07T17:04:31.122Z,10.10
2022-10-07T17:06:59.043Z,8.95
2022-10-07T17:09:27.107Z,9.50
2022-10-07T17:11:55.827Z,8.68
2022-10-07T17:14:24.300Z,8.77
2022-10-07T17:16:56.717Z,10.93
2022-10-07T17:19:27.261Z,11.90
2022-10-07T17:21:57.058Z,11.30
2022-10-07T17:24:25.219Z,8.80
2022-10-07T17:26:53.411Z,12.37
2022-10-07T17:29:24.657Z,11.25
2022-10-07T17:31:53.069Z,13.15
2022-10-07T17:34:22.102Z,15.88
2022-10-07T17:36:51.217Z,17.20
2022-10-07T17:39:22.265Z,14.43
2022-10-07T17:41:50.299Z,12.57
2022-10-07T17:44:18.362Z,15.70
2022-10-07T17:46:47.216Z,14.65
2022-10-07T17:49:15.223Z,12.13
2022-10-07T17:51:44.141Z,16.33
2022-10-07T17:54:17.087Z,12.75
2022-10-07T17:56:46.267Z,12.40
2022-10-07T17:59:14.774Z,12.85
2022-10-07T18:01:43.384Z,12.40
2022-10-07T18:04:15.944Z,17.23
2022-10-07T18:06:47.542Z,15.50
2022-10-07T18:09:18.920Z,14.90
2022-10-07T18:12:05.814Z,15.07
2022-10-07T18:14:54.134Z,15.48
2022-10-07T18:17:25.026Z,12.73
2022-10-07T18:19:53.553Z,13.35
2022-10-07T18:22:22.075Z,9.30
2022-10-07T18:24:51.101Z,11.57
2022-10-07T18:27:28.575Z,16.00
2022-10-07T18:29:56.946Z,11.97
2022-10-07T18:32:25.816Z,13.77
2022-10-07T18:34:54.322Z,14.32
2022-10-07T18:37:24.192Z,13.55
2022-10-07T18:39:52.278Z,14.07
2022-10-07T18:42:20.303Z,12.07
2022-10-07T18:44:48.443Z,12.70
2022-10-07T18:47:16.398Z,11.88
2022-10-07T18:49:44.495Z,12.32
2022-10-07T18:52:12.444Z,12.10
2022-10-07T18:54:40.485Z,12.90
2022-10-07T18:57:08.530Z,18.20
2022-10-07T18:59:36.520Z,13.93
2022-10-07T19:02:04.664Z,10.18
2022-10-07T19:04:32.877Z,12.85
2022-10-07T19:07:02.125Z,15.50
2022-10-07T19:09:30.113Z,12.77
2022-10-07T19:11:58.205Z,14.43
2022-10-07T19:14:26.566Z,12.38
2022-10-07T19:16:54.574Z,10.68
2022-10-07T19:19:24.798Z,13.37
2022-10-07T19:21:56.401Z,10.57
2022-10-07T19:24:45.264Z,13.45
2022-10-07T19:27:13.744Z,13.07
2022-10-07T19:29:44.564Z,13.48
2022-10-07T19:32:14.477Z,13.70
2022-10-07T19:34:42.498Z,11.88
2022-10-07T19:37:10.519Z,16.45
2022-10-07T19:39:38.947Z,16.23
2022-10-07T19:42:06.862Z,17.77
2022-10-07T19:44:34.906Z,19.67
2022-10-07T19:47:06.090Z,18.80
2022-10-07T19:49:34.205Z,15.93
2022-10-07T19:52:02.141Z,14.95
2022-10-07T19:54:36.127Z,13.00
2022-10-07T19:57:04.530Z,10.83
2022-10-07T19:59:35.186Z,12.05
2022-10-07T20:02:03.730Z,10.52
2022-10-07T20:04:32.647Z,14.15
2022-10-07T20:07:00.684Z,10.10
2022-10-07T20:09:28.656Z,9.93
2022-10-07T20:12:00.988Z,13.15
2022-10-07T20:14:29.228Z,9.57
2022-10-07T20:16:57.366Z,10.13
2022-10-07T20:19:26.359Z,9.23
2022-10-07T20:21:54.820Z,8.67
2022-10-07T20:24:22.828Z,10.93
2022-10-07T20:26:50.642Z,9.55
2022-10-07T20:29:22.708Z,8.55
2022-10-07T20:31:53.504Z,10.75
2022-10-07T20:34:21.520Z,9.50
2022-10-07T20:36:50.832Z,10.43
2022-10-07T20:39:39.322Z,12.63
2022-10-07T20:42:24.568Z,11.90
2022-10-07T20:44:53.859Z,9.95
2022-10-07T20:47:23.914Z,11.03
2022-10-07T20:49:52.253Z,9.15
2022-10-07T20:52:25.359Z,9.15
2022-10-07T20:54:54.805Z,10.45
2022-10-07T20:57:25.470Z,9.20
2022-10-07T20:59:53.951Z,11.03
2022-10-07T21:02:23.812Z,10.32
2022-10-07T21:04:52.085Z,9.85
2022-10-07T21:07:22.023Z,9.45
2022-10-07T21:09:50.262Z,8.13
2022-10-07T21:12:18.902Z,11.23
2022-10-07T21:14:48.756Z,10.93
2022-10-07T21:17:17.293Z,11.52
2022-10-07T21:19:46.228Z,8.65
2022-10-07T21:22:14.368Z,9.23
2022-10-07T21:24:42.763Z,8.93
2022-10-07T21:27:10.858Z,10.38
2022-10-07T21:29:41.049Z,8.40
2022-10-07T21:32:11.147Z,8.07
2022-10-07T21:34:39.618Z,9.95
2022-10-07T21:37:07.693Z,8.30
2022-10-07T21:39:38.522Z,8.55
2022-10-07T21:42:06.779Z,7.68
2022-10-07T21:44:35.949Z,10.93
2022-10-07T21:47:05.400Z,8.38
2022-10-07T21:49:33.482Z,8.20
2022-10-07T21:52:01.602Z,8.25
2022-10-07T21:54:30.921Z,8.50
2022-10-07T21:56:59.041Z,9.15
2022-10-07T21:59:26.892Z,7.93
2022-10-07T22:01:54.944Z,8.33
2022-10-07T22:04:23.173Z,6.78
2022-10-07T22:07:09.266Z,8.27
2022-10-07T22:09:37.158Z,7.68
2022-10-07T22:12:05.180Z,6.57
2022-10-07T22:14:33.177Z,9.87
2022-10-07T22:17:01.078Z,7.25
2022-10-07T22:19:29.320Z,6.75
2022-10-07T22:21:57.270Z,9.02
2022-10-07T22:24:25.290Z,7.18
2022-10-07T22:26:53.069Z,5.63
2022-10-07T22:29:22.089Z,8.60
2022-10-07T22:31:50.137Z,7.72
2022-10-07T22:34:37.030Z,7.75
2022-10-07T22:37:06.680Z,7.65
2022-10-07T22:39:34.397Z,7.30
2022-10-07T22:42:04.053Z,6.45
2022-10-07T22:44:32.304Z,7.60
2022-10-07T22:47:00.707Z,8.60
2022-10-07T22:49:30.374Z,6.40
2022-10-07T22:52:04.701Z,6.63
2022-10-07T22:54:32.808Z,7.03
2022-10-07T22:57:00.948Z,6.28
2022-10-07T22:59:29.174Z,7.15
2022-10-07T23:01:57.159Z,7.30
2022-10-07T23:04:25.196Z,6.27
2022-10-07T23:06:54.054Z,5.88
2022-10-07T23:09:22.171Z,5.95
2022-10-07T23:11:50.108Z,8.82
2022-10-07T23:14:18.513Z,6.30
2022-10-07T23:16:46.448Z,7.57
2022-10-07T23:19:14.837Z,6.50
2022-10-07T23:21:45.015Z,7.60
2022-10-07T23:24:14.421Z,6.25
2022-10-07T23:26:44.537Z,9.52
2022-10-07T23:29:13.695Z,5.90
2022-10-07T23:31:42.609Z,9.57
2022-10-07T23:34:11.459Z,7.85
2022-10-07T23:36:41.229Z,6.32
2022-10-07T23:39:09.407Z,6.70
2022-10-07T23:41:37.595Z,8.07
2022-10-07T23:44:05.863Z,6.07
2022-10-07T23:46:40.183Z,6.72
2022-10-07T23:49:08.648Z,10.05
2022-10-07T23:51:39.507Z,7.35
2022-10-07T23:54:08.094Z,6.80
2022-10-07T23:56:36.206Z,8.27
2022-10-07T23:59:04.353Z,7.57
